Time;durP1;ratioP1;P1;durP2;ratioP2;P2;SDS_P1;SDS_P2;PMS_P1;PMS_P2;Temp;Humidity;BMP_temperature;BMP_pressure;BME280_temperature;BME280_humidity;BME280_pressure;Samples;Min_cycle;Max_cycle;Signal;HPM_P1;HPM_P2
2021/01/22 00:00:40;;;;;;;10.02;3.72;;;11.00;62.00;;;;;;4987648;28;21018;-58
2021/01/22 00:03:05;;;;;;;10.85;4.10;;;11.10;62.10;;;;;;4981255;28;20491;-58
2021/01/22 00:05:31;;;;;;;6.38;4.32;;;11.10;62.10;;;;;;4989771;28;20105;-57
2021/01/22 00:07:57;;;;;;;10.50;4.03;;;11.10;62.20;;;;;;4980364;28;20129;-58
2021/01/22 00:10:22;;;;;;;9.27;4.53;;;11.20;62.30;;;;;;4987625;28;20049;-58
2021/01/22 00:12:48;;;;;;;10.38;5.13;;;11.20;62.40;;;;;;4979375;28;20034;-58
2021/01/22 00:15:15;;;;;;;13.25;5.00;;;11.30;62.60;;;;;;4985672;28;20458;-58
2021/01/22 00:17:41;;;;;;;8.65;5.00;;;11.30;62.60;;;;;;4985886;28;20124;-58
2021/01/22 00:20:08;;;;;;;9.50;5.15;;;11.30;62.60;;;;;;4990730;28;20410;-59
2021/01/22 00:22:35;;;;;;;7.57;5.20;;;11.30;62.70;;;;;;4982798;28;20042;-58
2021/01/22 00:25:01;;;;;;;16.27;5.82;;;11.40;62.90;;;;;;4988936;28;20036;-58
2021/01/22 00:27:26;;;;;;;13.55;5.53;;;11.40;63.00;;;;;;4984498;28;20050;-59
2021/01/22 00:29:52;;;;;;;11.82;5.75;;;11.40;63.10;;;;;;4986902;28;20034;-58
2021/01/22 00:32:18;;;;;;;9.02;5.90;;;11.40;63.20;;;;;;4979891;28;20046;-58
2021/01/22 00:34:43;;;;;;;10.38;5.90;;;11.50;63.40;;;;;;4987382;28;20041;-58
2021/01/22 00:37:09;;;;;;;8.82;6.10;;;11.50;63.40;;;;;;4983261;28;20496;-58
2021/01/22 00:39:35;;;;;;;13.48;6.10;;;11.50;63.50;;;;;;4984880;28;20142;-58
2021/01/22 00:42:00;;;;;;;9.50;5.95;;;11.60;63.60;;;;;;4984326;28;20119;-58
2021/01/22 00:44:26;;;;;;;12.15;6.38;;;11.60;63.60;;;;;;4985145;28;20046;-58
2021/01/22 00:46:52;;;;;;;9.57;6.00;;;11.70;63.80;;;;;;4984820;28;20034;-58
2021/01/22 00:49:17;;;;;;;9.73;6.10;;;11.70;63.90;;;;;;4982901;28;20038;-58
2021/01/22 00:51:43;;;;;;;10.98;5.97;;;11.80;64.10;;;;;;4987645;28;20373;-58
2021/01/22 00:54:09;;;;;;;9.68;6.07;;;11.80;64.10;;;;;;4986276;28;20038;-58
2021/01/22 00:56:34;;;;;;;11.55;6.00;;;11.80;64.20;;;;;;4988218;28;20038;-58
2021/01/22 00:59:00;;;;;;;11.18;6.38;;;11.90;64.20;;;;;;4985757;28;20041;-58
2021/01/22 01:01:25;;;;;;;13.65;6.47;;;11.90;64.40;;;;;;4986036;28;20475;-58
2021/01/22 01:03:51;;;;;;;9.93;5.53;;;11.90;64.40;;;;;;4975593;28;20039;-58
2021/01/22 01:06:17;;;;;;;11.95;6.15;;;12.00;64.50;;;;;;4982950;28;20340;-58
2021/01/22 01:08:42;;;;;;;14.60;7.03;;;12.10;64.60;;;;;;4983762;28;20407;-59
2021/01/22 01:11:09;;;;;;;15.18;6.68;;;12.10;64.60;;;;;;4980271;28;20091;-59
2021/01/22 01:13:34;;;;;;;13.10;6.85;;;12.20;64.80;;;;;;4989169;28;20046;-58
2021/01/22 01:16:00;;;;;;;10.38;5.07;;;12.20;64.80;;;;;;4982600;28;20042;-58
2021/01/22 01:18:26;;;;;;;13.85;5.47;;;12.30;64.80;;;;;;4985458;28;20116;-59
2021/01/22 01:20:53;;;;;;;7.47;4.70;;;12.30;64.80;;;;;;4985939;28;20041;-58
2021/01/22 01:23:19;;;;;;;8.50;4.93;;;12.40;64.80;;;;;;4985033;28;20042;-58
2021/01/22 01:25:45;;;;;;;9.23;4.35;;;12.40;64.90;;;;;;4984023;28;20554;-59
2021/01/22 01:28:11;;;;;;;9.32;4.68;;;12.40;65.00;;;;;;4985894;28;20045;-59
2021/01/22 01:30:36;;;;;;;10.20;4.57;;;12.50;65.10;;;;;;4987415;28;20426;-58
2021/01/22 01:33:03;;;;;;;10.23;4.53;;;12.50;65.10;;;;;;4986918;28;20022;-58
2021/01/22 01:35:29;;;;;;;8.25;4.53;;;12.60;65.10;;;;;;4990878;28;20033;-59
2021/01/22 01:37:57;;;;;;;6.18;4.32;;;12.60;65.10;;;;;;4984227;28;20116;-59
2021/01/22 01:40:23;;;;;;;10.52;4.40;;;12.70;65.10;;;;;;4984815;28;20131;-59
2021/01/22 01:42:48;;;;;;;8.75;4.40;;;12.70;65.10;;;;;;4988012;28;20050;-59
2021/01/22 01:45:16;;;;;;;8.68;4.00;;;12.70;65.10;;;;;;4988416;28;20050;-59
2021/01/22 01:47:42;;;;;;;9.68;4.03;;;12.80;65.30;;;;;;4983764;28;20093;-59
2021/01/22 01:50:08;;;;;;;6.22;3.85;;;12.80;65.10;;;;;;4985290;28;20117;-59
2021/01/22 01:52:34;;;;;;;5.22;3.90;;;12.80;65.10;;;;;;4987012;28;20045;-59
2021/01/22 01:55:00;;;;;;;6.65;3.60;;;12.80;65.10;;;;;;4989209;28;20088;-59
2021/01/22 01:57:26;;;;;;;5.00;4.10;;;12.90;65.10;;;;;;4985491;28;20051;-58
2021/01/22 01:59:51;;;;;;;9.10;3.80;;;12.90;65.00;;;;;;4981433;28;20037;-58
2021/01/22 02:02:19;;;;;;;5.70;3.65;;;12.90;65.00;;;;;;4987239;28;20125;-58
2021/01/22 02:04:44;;;;;;;6.85;3.38;;;12.90;65.10;;;;;;4986068;28;20077;-59
2021/01/22 02:07:10;;;;;;;6.75;3.50;;;13.00;65.10;;;;;;4985906;28;20477;-59
2021/01/22 02:09:36;;;;;;;5.20;3.47;;;13.00;65.10;;;;;;4986006;28;20045;-58
2021/01/22 02:12:02;;;;;;;4.30;3.20;;;13.00;65.00;;;;;;4988772;28;20129;-59
2021/01/22 02:14:30;;;;;;;5.20;2.92;;;13.00;65.00;;;;;;4989917;28;20064;-59
2021/01/22 02:16:57;;;;;;;6.10;2.95;;;13.00;65.60;;;;;;4984477;28;20188;-59
2021/01/22 02:19:50;;;;;;;6.50;3.25;;;13.00;64.80;;;;;;4984199;28;20169;-58
2021/01/22 02:22:16;;;;;;;2.05;1.85;;;13.00;64.80;;;;;;4987936;28;20100;-59
2021/01/22 02:24:42;;;;;;;4.05;2.20;;;13.00;64.10;;;;;;4987936;28;20038;-59
2021/01/22 02:27:09;;;;;;;2.53;1.20;;;12.90;63.50;;;;;;4993325;28;20128;-59
2021/01/22 02:29:36;;;;;;;1.33;1.20;;;12.80;62.50;;;;;;4993123;28;20050;-59
2021/01/22 02:32:04;;;;;;;4.00;1.30;;;12.50;61.70;;;;;;4989584;28;20503;-58
2021/01/22 02:34:34;;;;;;;1.77;1.60;;;12.30;61.60;;;;;;4990956;28;20049;-59
2021/01/22 02:37:03;;;;;;;2.45;1.55;;;12.00;61.70;;;;;;4991315;28;20061;-59
2021/01/22 02:39:35;;;;;;;4.03;1.50;;;11.80;61.70;;;;;;4990026;28;20057;-59
2021/01/22 02:42:03;;;;;;;4.55;1.50;;;11.60;62.00;;;;;;4988484;28;20166;-59
2021/01/22 02:44:29;;;;;;;3.08;1.50;;;11.50;62.00;;;;;;4992129;28;20052;-59
2021/01/22 02:46:57;;;;;;;1.63;1.50;;;11.40;61.90;;;;;;4986025;28;20185;-59
2021/01/22 02:49:23;;;;;;;2.08;1.50;;;11.20;62.70;;;;;;4986544;28;20039;-59
2021/01/22 02:51:48;;;;;;;1.80;1.65;;;11.00;61.80;;;;;;4988858;28;20033;-59
2021/01/22 02:54:14;;;;;;;1.30;1.00;;;10.90;61.90;;;;;;4987649;28;20038;-59
2021/01/22 02:57:05;;;;;;;2.00;0.90;;;10.80;61.80;;;;;;4992909;28;20041;-59
2021/01/22 02:59:57;;;;;;;1.05;0.63;;;10.60;61.60;;;;;;4961516;28;20081;-59
2021/01/22 03:02:28;;;;;;;1.30;0.70;;;10.40;61.20;;;;;;4989995;28;20042;-59
2021/01/22 03:04:54;;;;;;;0.70;0.70;;;10.20;61.10;;;;;;4987966;28;20053;-59
2021/01/22 03:07:29;;;;;;;1.10;0.70;;;9.90;61.00;;;;;;4985110;28;20109;-59
2021/01/22 03:09:59;;;;;;;1.00;0.90;;;9.80;61.20;;;;;;4991738;28;20130;-59
2021/01/22 03:12:27;;;;;;;1.25;0.73;;;9.60;61.40;;;;;;4990575;28;20125;-58
2021/01/22 03:14:53;;;;;;;2.00;1.08;;;9.40;61.50;;;;;;4989675;28;20059;-59
2021/01/22 03:17:19;;;;;;;2.80;1.20;;;9.30;61.60;;;;;;4989506;28;20039;-59
2021/01/22 03:19:49;;;;;;;1.55;1.10;;;9.20;61.70;;;;;;4987370;28;20245;-59
2021/01/22 03:22:16;;;;;;;1.33;1.23;;;9.10;61.80;;;;;;4991887;28;20052;-59
2021/01/22 03:24:42;;;;;;;1.40;1.30;;;9.00;61.60;;;;;;4985945;28;21819;-58
2021/01/22 03:27:07;;;;;;;2.00;1.30;;;8.80;61.60;;;;;;4988343;28;20050;-59
2021/01/22 03:29:35;;;;;;;2.20;1.63;;;8.70;61.70;;;;;;4990925;28;20038;-58
2021/01/22 03:32:01;;;;;;;3.97;1.90;;;8.70;61.80;;;;;;4986972;28;20044;-58
2021/01/22 03:34:26;;;;;;;1.98;1.70;;;8.60;62.00;;;;;;4987990;28;20561;-58
2021/01/22 03:36:56;;;;;;;2.22;2.03;;;8.50;62.20;;;;;;4985296;28;20108;-59
2021/01/22 03:39:23;;;;;;;2.95;1.83;;;8.50;62.40;;;;;;5003873;28;20511;-59
2021/01/22 03:41:48;;;;;;;2.15;1.95;;;8.50;62.40;;;;;;4987740;28;20037;-59
2021/01/22 03:44:16;;;;;;;2.00;1.85;;;8.50;62.50;;;;;;4988806;28;20506;-58
2021/01/22 03:46:45;;;;;;;3.83;1.88;;;8.50;62.60;;;;;;4988362;28;20034;-58
2021/01/22 03:49:11;;;;;;;1.83;1.63;;;8.50;62.80;;;;;;4984474;28;20046;-58
2021/01/22 03:51:37;;;;;;;2.72;1.80;;;8.50;62.80;;;;;;4984462;28;20157;-58
2021/01/22 03:54:03;;;;;;;2.35;1.65;;;8.40;62.90;;;;;;4989461;28;20120;-58
2021/01/22 03:56:29;;;;;;;2.17;1.85;;;8.40;62.90;;;;;;4986395;28;20551;-58
2021/01/22 03:58:55;;;;;;;3.03;1.60;;;8.40;63.20;;;;;;4983808;28;20064;-58
2021/01/22 04:01:22;;;;;;;3.22;1.85;;;8.50;63.30;;;;;;4986329;28;20041;-58
2021/01/22 04:03:48;;;;;;;4.28;1.88;;;8.50;63.30;;;;;;4987159;28;20038;-58
2021/01/22 04:06:13;;;;;;;1.90;1.45;;;8.50;63.30;;;;;;4984900;28;20065;-58
2021/01/22 04:08:39;;;;;;;1.55;1.30;;;8.50;63.30;;;;;;4988523;28;20042;-59
2021/01/22 04:11:04;;;;;;;1.70;1.35;;;8.60;63.20;;;;;;4988166;28;20042;-58
2021/01/22 04:13:30;;;;;;;3.45;1.30;;;8.50;63.30;;;;;;4988488;28;20042;-58
2021/01/22 04:15:56;;;;;;;1.95;1.40;;;8.50;63.20;;;;;;4987849;28;20037;-58
2021/01/22 04:18:21;;;;;;;2.65;1.45;;;8.60;63.30;;;;;;4989617;28;20046;-59
2021/01/22 04:20:47;;;;;;;4.50;1.50;;;8.60;63.40;;;;;;4987139;28;20439;-59
2021/01/22 04:23:12;;;;;;;3.53;1.80;;;8.60;63.40;;;;;;4990165;28;20069;-58
2021/01/22 04:25:38;;;;;;;4.60;1.98;;;8.60;63.40;;;;;;4988010;28;20065;-58
2021/01/22 04:28:04;;;;;;;2.28;1.50;;;8.60;63.40;;;;;;4985000;28;20044;-59
2021/01/22 04:30:29;;;;;;;1.50;1.40;;;8.60;63.40;;;;;;4984880;28;20305;-59
2021/01/22 04:32:55;;;;;;;3.08;1.48;;;8.60;63.30;;;;;;4990179;28;20142;-58
2021/01/22 04:35:20;;;;;;;1.85;1.50;;;8.60;63.20;;;;;;4986496;28;20049;-58
2021/01/22 04:37:46;;;;;;;4.50;1.83;;;8.60;63.30;;;;;;4984243;28;20495;-58
2021/01/22 04:40:12;;;;;;;6.38;2.03;;;8.60;63.20;;;;;;4987910;28;20038;-59
2021/01/22 04:42:42;;;;;;;1.58;1.40;;;8.50;63.10;;;;;;4985486;28;20570;-59
2021/01/22 04:45:10;;;;;;;5.80;1.75;;;8.50;63.20;;;;;;4990258;28;20058;-58
2021/01/22 04:47:40;;;;;;;2.47;1.65;;;8.50;63.20;;;;;;4989372;28;20061;-59
2021/01/22 04:50:07;;;;;;;1.52;1.42;;;8.50;63.20;;;;;;4990238;28;20046;-59
2021/01/22 04:52:35;;;;;;;2.15;1.90;;;8.50;63.20;;;;;;4989436;28;20045;-58
2021/01/22 04:55:04;;;;;;;1.92;1.67;;;8.40;63.20;;;;;;4989816;28;20133;-59
2021/01/22 04:57:31;;;;;;;3.75;1.83;;;8.40;63.20;;;;;;4985044;28;20042;-59
2021/01/22 04:59:58;;;;;;;3.67;1.98;;;8.40;63.10;;;;;;4984596;28;20049;-59
2021/01/22 05:02:23;;;;;;;2.10;1.83;;;8.30;63.00;;;;;;4984648;28;20057;-58
2021/01/22 05:04:50;;;;;;;4.85;2.30;;;8.30;63.10;;;;;;4982591;28;20134;-58
2021/01/22 05:07:20;;;;;;;3.58;2.20;;;8.20;63.00;;;;;;4984055;28;20481;-58
2021/01/22 05:09:45;;;;;;;2.90;2.00;;;8.20;63.10;;;;;;4986072;28;20141;-58
2021/01/22 05:12:11;;;;;;;4.43;2.20;;;8.10;63.10;;;;;;4988994;28;20052;-58
2021/01/22 05:14:37;;;;;;;5.63;2.78;;;8.10;63.10;;;;;;4987491;28;20413;-59
2021/01/22 05:17:04;;;;;;;8.93;2.17;;;8.00;63.20;;;;;;4986443;28;20030;-59
2021/01/22 05:19:31;;;;;;;4.55;2.10;;;8.00;63.40;;;;;;4986927;28;20776;-58
2021/01/22 05:21:57;;;;;;;3.92;2.30;;;8.00;63.50;;;;;;4982286;28;20038;-58
2021/01/22 05:24:25;;;;;;;7.68;2.80;;;7.90;63.50;;;;;;4982375;28;20037;-58
2021/01/22 05:27:11;;;;;;;4.05;2.50;;;7.90;63.50;;;;;;4982049;28;20026;-58
2021/01/22 05:29:39;;;;;;;6.00;2.20;;;7.90;63.60;;;;;;4983819;28;20038;-58
2021/01/22 05:32:24;;;;;;;3.85;2.40;;;7.90;63.60;;;;;;4984105;28;20104;-59
2021/01/22 05:34:50;;;;;;;5.10;2.58;;;7.90;63.60;;;;;;4987681;28;20038;-58
2021/01/22 05:37:15;;;;;;;6.70;2.35;;;7.80;63.60;;;;;;4979596;28;20041;-58
2021/01/22 05:39:41;;;;;;;5.20;2.60;;;7.80;63.60;;;;;;4986133;28;20373;-59
2021/01/22 05:42:07;;;;;;;6.20;2.88;;;7.80;63.70;;;;;;4988218;28;20044;-58
2021/01/22 05:44:34;;;;;;;9.27;3.10;;;7.70;63.80;;;;;;4991501;28;20042;-58
2021/01/22 05:47:10;;;;;;;8.05;3.10;;;7.80;64.20;;;;;;4990440;28;20041;-58
2021/01/22 05:49:56;;;;;;;6.43;2.92;;;7.80;64.50;;;;;;4991509;28;20049;-59
2021/01/22 05:52:23;;;;;;;6.22;3.40;;;7.80;64.70;;;;;;4989820;28;20491;-58
2021/01/22 05:54:49;;;;;;;8.80;3.65;;;7.90;64.80;;;;;;4989895;28;20053;-58
2021/01/22 05:57:15;;;;;;;8.00;3.88;;;8.00;65.00;;;;;;4986169;28;21698;-59
2021/01/22 05:59:41;;;;;;;11.20;5.00;;;8.10;65.10;;;;;;4987658;28;20038;-58
2021/01/22 06:02:26;;;;;;;13.57;4.28;;;8.10;65.10;;;;;;4991409;28;20093;-59
2021/01/22 06:05:07;;;;;;;15.63;5.55;;;8.20;65.20;;;;;;4987605;28;20046;-58
2021/01/22 06:07:34;;;;;;;13.85;6.38;;;8.20;65.20;;;;;;4988078;28;20427;-58
2021/01/22 06:10:15;;;;;;;16.88;6.38;;;8.30;65.20;;;;;;4989352;28;20034;-59
2021/01/22 06:12:50;;;;;;;12.77;5.93;;;8.40;65.20;;;;;;4992266;28;20057;-58
2021/01/22 06:15:18;;;;;;;11.52;6.75;;;8.40;65.10;;;;;;4989299;28;20042;-61
2021/01/22 06:17:47;;;;;;;14.95;7.10;;;8.50;65.10;;;;;;4988183;28;20314;-60
2021/01/22 06:20:16;;;;;;;16.27;7.57;;;8.50;65.20;;;;;;4986990;28;20491;-59
2021/01/22 06:23:00;;;;;;;19.60;8.45;;;8.50;65.10;;;;;;4990435;28;20035;-58
2021/01/22 06:25:27;;;;;;;22.35;9.32;;;8.60;65.20;;;;;;4985806;28;20576;-58
2021/01/22 06:27:55;;;;;;;23.55;9.90;;;8.60;65.10;;;;;;4988525;28;20407;-58
2021/01/22 06:30:23;;;;;;;24.02;10.27;;;8.70;65.20;;;;;;4988156;28;20041;-58
2021/01/22 06:32:49;;;;;;;19.95;9.80;;;8.70;65.00;;;;;;4987863;28;20520;-59
2021/01/22 06:35:16;;;;;;;24.13;10.10;;;8.70;64.90;;;;;;4990605;28;20043;-58
2021/01/22 06:37:48;;;;;;;18.77;10.32;;;8.70;64.80;;;;;;4984539;28;20105;-59
2021/01/22 06:40:14;;;;;;;25.65;10.52;;;8.60;64.50;;;;;;4991228;28;20420;-59
2021/01/22 06:42:40;;;;;;;21.50;9.43;;;8.60;64.50;;;;;;4989640;28;21392;-59
2021/01/22 06:45:07;;;;;;;23.27;10.77;;;8.60;64.50;;;;;;4987818;28;20142;-59
2021/01/22 06:47:33;;;;;;;25.35;11.00;;;8.50;64.60;;;;;;4988775;28;20555;-58
2021/01/22 06:49:59;;;;;;;33.05;11.63;;;8.50;64.70;;;;;;4991886;28;20030;-58
2021/01/22 06:52:25;;;;;;;26.00;11.25;;;8.50;65.00;;;;;;4985239;28;20543;-59
2021/01/22 06:54:56;;;;;;;23.40;10.88;;;8.50;65.20;;;;;;4991012;28;20059;-59
2021/01/22 06:57:23;;;;;;;24.85;10.98;;;8.60;65.30;;;;;;4990743;28;20042;-59
2021/01/22 06:59:48;;;;;;;25.80;11.55;;;8.60;65.20;;;;;;4990585;28;20508;-58
2021/01/22 07:02:43;;;;;;;25.92;11.52;;;8.60;65.10;;;;;;4989519;28;20104;-59
2021/01/22 07:05:29;;;;;;;26.70;11.00;;;8.60;64.90;;;;;;4981867;28;20042;-59
2021/01/22 07:07:55;;;;;;;32.08;11.23;;;8.60;65.00;;;;;;4989035;28;20039;-58
2021/01/22 07:10:21;;;;;;;29.40;12.15;;;8.60;65.20;;;;;;4985670;28;20048;-59
2021/01/22 07:12:46;;;;;;;30.02;11.80;;;8.70;65.50;;;;;;4988918;28;20635;-59
2021/01/22 07:15:24;;;;;;;29.45;12.15;;;8.70;65.30;;;;;;4989878;28;20030;-59
2021/01/22 07:18:00;;;;;;;29.35;12.45;;;8.70;65.20;;;;;;4992836;28;20518;-58
2021/01/22 07:20:30;;;;;;;29.00;12.77;;;8.70;65.10;;;;;;4992238;28;20042;-59
2021/01/22 07:23:00;;;;;;;31.02;12.73;;;8.80;65.20;;;;;;4992863;28;20069;-59
2021/01/22 07:25:42;;;;;;;37.80;14.48;;;8.80;65.30;;;;;;4993157;28;20089;-59
2021/01/22 07:28:17;;;;;;;33.53;12.57;;;8.80;65.30;;;;;;4989330;28;20038;-59
2021/01/22 07:30:43;;;;;;;31.15;13.95;;;8.80;65.30;;;;;;4983725;28;20042;-59
2021/01/22 07:33:28;;;;;;;35.08;14.43;;;8.90;65.50;;;;;;4990305;28;20454;-59
2021/01/22 07:36:10;;;;;;;34.30;14.27;;;8.90;65.50;;;;;;4991913;28;20057;-58
2021/01/22 07:38:38;;;;;;;32.22;15.02;;;8.90;65.40;;;;;;4991394;28;20095;-59
2021/01/22 07:41:05;;;;;;;33.88;15.07;;;8.90;65.40;;;;;;4992292;28;20045;-58
2021/01/22 07:43:31;;;;;;;26.80;14.70;;;9.00;65.50;;;;;;4987889;28;20076;-58
2021/01/22 07:46:07;;;;;;;34.53;14.85;;;9.00;65.30;;;;;;4990114;28;20042;-58
2021/01/22 07:48:33;;;;;;;40.00;14.45;;;9.00;65.20;;;;;;4989542;28;20514;-59
2021/01/22 07:50:59;;;;;;;29.38;14.65;;;9.10;65.90;;;;;;4987934;28;20169;-59
2021/01/22 07:53:24;;;;;;;31.52;15.25;;;9.10;65.10;;;;;;4988629;28;20042;-58
2021/01/22 07:55:53;;;;;;;32.42;15.73;;;9.10;65.10;;;;;;4987699;28;20047;-58
2021/01/22 07:58:19;;;;;;;32.30;14.93;;;9.10;65.10;;;;;;4991670;28;20038;-59
2021/01/22 08:00:45;;;;;;;35.20;15.05;;;9.10;65.10;;;;;;4989240;28;20046;-58
2021/01/22 08:03:13;;;;;;;34.58;15.10;;;9.20;65.10;;;;;;4984218;28;20213;-58
2021/01/22 08:05:39;;;;;;;24.85;14.07;;;9.20;65.00;;;;;;4988830;28;20057;-58
2021/01/22 08:08:19;;;;;;;30.05;15.15;;;9.20;64.90;;;;;;4986890;28;20112;-58
2021/01/22 08:10:44;;;;;;;31.75;13.73;;;9.20;64.80;;;;;;4990851;28;20061;-58
2021/01/22 08:13:10;;;;;;;29.70;13.82;;;9.20;64.70;;;;;;4989657;28;20057;-59
2021/01/22 08:15:36;;;;;;;23.80;12.40;;;9.20;64.60;;;;;;4992910;28;20488;-59
2021/01/22 08:18:05;;;;;;;30.38;13.55;;;9.20;64.60;;;;;;4986373;28;21868;-58
2021/01/22 08:20:32;;;;;;;33.75;12.25;;;9.20;64.60;;;;;;4997436;28;20105;-58
2021/01/22 08:23:00;;;;;;;21.73;12.88;;;9.20;64.50;;;;;;4984192;28;20037;-59
2021/01/22 08:25:38;;;;;;;28.23;12.85;;;9.20;64.30;;;;;;4989187;28;21428;-58
2021/01/22 08:28:09;;;;;;;25.42;12.32;;;9.20;64.40;;;;;;4985104;28;20129;-59
2021/01/22 08:30:36;;;;;;;24.48;11.63;;;9.20;64.20;;;;;;4988119;28;20049;-59
2021/01/22 08:33:03;;;;;;;36.05;12.90;;;9.20;64.30;;;;;;4988439;28;20088;-59
2021/01/22 08:35:30;;;;;;;24.85;12.20;;;9.20;64.30;;;;;;4981570;28;20107;-58
2021/01/22 08:37:58;;;;;;;26.02;11.50;;;9.20;64.40;;;;;;4987720;28;20050;-58
2021/01/22 08:40:39;;;;;;;29.08;12.65;;;9.20;64.50;;;;;;4987411;28;20505;-58
2021/01/22 08:43:09;;;;;;;27.90;11.77;;;9.30;64.60;;;;;;4986814;28;20040;-58
2021/01/22 08:45:36;;;;;;;21.15;12.20;;;9.30;64.40;;;;;;4986635;28;20042;-58
2021/01/22 08:48:01;;;;;;;23.65;12.43;;;9.40;64.40;;;;;;4987782;28;20048;-59
2021/01/22 08:50:27;;;;;;;25.20;11.32;;;9.40;64.30;;;;;;4988614;28;20729;-59
2021/01/22 08:53:06;;;;;;;19.02;11.50;;;9.50;64.40;;;;;;4987257;28;20514;-58
2021/01/22 08:55:32;;;;;;;21.92;11.00;;;9.50;64.30;;;;;;4982682;28;20038;-59
2021/01/22 08:58:11;;;;;;;27.00;10.82;;;9.50;64.90;;;;;;4978357;28;20526;-58
2021/01/22 09:00:41;;;;;;;20.35;11.30;;;9.50;64.10;;;;;;4980998;28;20361;-58
2021/01/22 09:03:21;;;;;;;31.75;12.05;;;9.50;63.90;;;;;;4978086;28;20038;-58
2021/01/22 09:05:50;;;;;;;26.33;11.95;;;9.50;63.90;;;;;;4980265;28;20671;-59
2021/01/22 09:08:15;;;;;;;25.90;12.15;;;9.50;63.90;;;;;;4978898;28;20111;-59
2021/01/22 09:10:46;;;;;;;26.00;11.90;;;9.50;63.80;;;;;;4987392;28;20143;-59
2021/01/22 09:13:20;;;;;;;23.98;11.15;;;9.60;63.90;;;;;;4982030;28;20345;-58
2021/01/22 09:15:47;;;;;;;19.77;10.40;;;9.60;63.90;;;;;;4987256;28;20033;-59
2021/01/22 09:18:16;;;;;;;26.58;11.40;;;9.60;63.80;;;;;;4983346;28;20400;-59
2021/01/22 09:20:43;;;;;;;22.65;10.95;;;9.60;63.70;;;;;;4984891;28;20037;-58
2021/01/22 09:23:09;;;;;;;19.15;10.50;;;9.60;63.60;;;;;;4980539;28;20466;-58
2021/01/22 09:25:34;;;;;;;22.40;10.45;;;9.70;63.60;;;;;;4982549;28;20046;-58
2021/01/22 09:28:00;;;;;;;24.35;10.93;;;9.70;63.50;;;;;;4985088;28;20802;-59
2021/01/22 09:30:27;;;;;;;28.70;10.65;;;9.70;63.50;;;;;;4983687;28;20038;-59
2021/01/22 09:32:58;;;;;;;21.83;9.63;;;9.70;63.40;;;;;;4984503;28;20683;-59
2021/01/22 09:35:27;;;;;;;19.52;9.93;;;9.70;63.30;;;;;;4990583;28;20030;-59
2021/01/22 09:37:53;;;;;;;19.92;9.85;;;9.70;63.30;;;;;;4991015;28;20049;-59
2021/01/22 09:40:20;;;;;;;19.05;9.57;;;9.70;63.30;;;;;;4981905;28;20325;-59
2021/01/22 09:42:45;;;;;;;22.63;9.73;;;9.70;63.20;;;;;;4980366;28;20045;-59
2021/01/22 09:45:12;;;;;;;21.65;9.48;;;9.70;63.20;;;;;;4984058;28;20123;-59
2021/01/22 09:47:38;;;;;;;21.58;9.20;;;9.70;63.20;;;;;;4981418;28;20559;-59
2021/01/22 09:50:09;;;;;;;23.08;9.88;;;9.80;63.20;;;;;;4982587;28;20042;-59
2021/01/22 09:52:38;;;;;;;25.92;10.18;;;9.80;63.10;;;;;;4986249;28;20058;-59
2021/01/22 09:55:06;;;;;;;16.55;8.93;;;9.80;63.00;;;;;;4986398;28;20042;-59
2021/01/22 09:57:32;;;;;;;23.67;9.50;;;9.80;62.90;;;;;;4987883;28;20116;-59
2021/01/22 09:59:57;;;;;;;18.17;7.88;;;9.90;63.00;;;;;;4985540;28;20133;-59
2021/01/22 10:02:23;;;;;;;25.00;9.05;;;9.90;62.80;;;;;;4986101;28;20050;-59
2021/01/22 10:04:48;;;;;;;20.15;8.52;;;10.00;62.90;;;;;;4987599;28;20646;-59
2021/01/22 10:07:14;;;;;;;27.20;8.38;;;10.00;62.80;;;;;;4987117;28;20049;-59
2021/01/22 10:09:39;;;;;;;17.75;8.93;;;10.10;62.80;;;;;;4988366;28;20522;-59
2021/01/22 10:12:07;;;;;;;20.20;8.32;;;10.10;62.50;;;;;;4987561;28;20088;-58
2021/01/22 10:14:32;;;;;;;14.90;8.23;;;10.20;62.40;;;;;;4991190;28;20130;-59
2021/01/22 10:17:00;;;;;;;23.40;8.75;;;10.20;62.40;;;;;;4986835;28;20621;-59
2021/01/22 10:19:26;;;;;;;25.15;9.15;;;10.30;62.20;;;;;;4987271;28;20038;-59
2021/01/22 10:21:51;;;;;;;22.90;9.45;;;10.40;62.50;;;;;;4981233;28;20034;-59
2021/01/22 10:24:17;;;;;;;20.35;9.05;;;10.50;62.90;;;;;;4982977;28;20443;-59
2021/01/22 10:26:46;;;;;;;17.80;8.05;;;10.80;62.80;;;;;;4984301;28;20077;-59
2021/01/22 10:29:12;;;;;;;18.52;8.57;;;10.90;62.00;;;;;;4990651;28;20042;-59
2021/01/22 10:31:38;;;;;;;17.42;7.95;;;11.00;61.50;;;;;;4984367;28;20229;-59
2021/01/22 10:34:04;;;;;;;16.20;8.55;;;11.00;61.10;;;;;;4989783;28;20038;-59
2021/01/22 10:36:30;;;;;;;22.05;8.20;;;11.00;60.90;;;;;;4984918;28;20069;-59
2021/01/22 10:38:55;;;;;;;23.48;8.65;;;11.10;61.00;;;;;;4986273;28;20172;-59
2021/01/22 10:41:22;;;;;;;15.82;8.05;;;11.20;61.30;;;;;;4986270;28;20053;-59
2021/01/22 10:43:47;;;;;;;14.55;7.43;;;11.40;60.80;;;;;;4986695;28;20817;-59
2021/01/22 10:46:13;;;;;;;22.30;7.70;;;11.60;61.20;;;;;;4983890;28;20054;-59
2021/01/22 10:48:39;;;;;;;23.55;8.32;;;11.80;60.80;;;;;;4988603;28;20488;-59
2021/01/22 10:51:07;;;;;;;12.95;7.13;;;12.00;59.60;;;;;;4986776;28;20042;-59
2021/01/22 10:53:33;;;;;;;18.10;6.88;;;12.10;59.70;;;;;;4988140;28;20068;-59
2021/01/22 10:55:59;;;;;;;16.10;6.57;;;12.70;61.70;;;;;;4989266;28;20041;-59
2021/01/22 10:58:25;;;;;;;15.48;6.95;;;13.40;59.40;;;;;;4989684;28;20499;-59
2021/01/22 11:00:54;;;;;;;15.93;6.82;;;13.60;57.70;;;;;;4988304;28;20181;-59
2021/01/22 11:03:20;;;;;;;25.73;6.75;;;13.70;56.70;;;;;;4988701;28;20056;-59
2021/01/22 11:05:46;;;;;;;15.68;6.63;;;13.60;55.70;;;;;;4987108;28;20039;-59
2021/01/22 11:08:11;;;;;;;12.45;7.05;;;13.40;55.40;;;;;;4985747;28;20100;-59
2021/01/22 11:10:37;;;;;;;13.77;6.78;;;13.20;56.30;;;;;;4991256;28;20073;-59
2021/01/22 11:13:03;;;;;;;18.38;5.88;;;13.40;57.30;;;;;;4990826;28;20111;-59
2021/01/22 11:15:30;;;;;;;12.80;5.88;;;13.90;56.10;;;;;;4989038;28;20042;-59
2021/01/22 11:17:56;;;;;;;14.30;6.53;;;13.90;54.30;;;;;;4992565;28;20034;-59
2021/01/22 11:20:22;;;;;;;15.85;7.43;;;13.70;54.00;;;;;;4989812;28;20384;-59
2021/01/22 11:22:48;;;;;;;15.48;6.65;;;13.40;53.90;;;;;;4989317;28;20042;-59
2021/01/22 11:25:15;;;;;;;20.55;7.07;;;13.10;54.10;;;;;;4990944;28;20038;-59
2021/01/22 11:27:41;;;;;;;15.85;6.68;;;12.90;54.40;;;;;;4981146;28;20042;-59
2021/01/22 11:30:08;;;;;;;12.73;7.18;;;12.80;54.40;;;;;;4984848;28;20347;-59
2021/01/22 11:32:33;;;;;;;16.05;6.60;;;12.70;55.80;;;;;;4986898;28;20484;-59
2021/01/22 11:34:59;;;;;;;21.00;6.72;;;13.30;57.00;;;;;;4990027;28;20053;-59
2021/01/22 11:37:25;;;;;;;24.10;6.78;;;14.00;55.20;;;;;;4988969;28;20035;-59
2021/01/22 11:39:51;;;;;;;15.75;6.40;;;14.10;52.80;;;;;;4989525;28;20176;-59
2021/01/22 11:42:16;;;;;;;15.13;7.00;;;13.80;52.00;;;;;;4980059;28;20046;-59
2021/01/22 11:44:43;;;;;;;14.25;5.78;;;13.50;52.40;;;;;;4987909;28;20072;-59
2021/01/22 11:47:09;;;;;;;20.13;6.50;;;13.30;52.70;;;;;;4988457;28;20248;-59
2021/01/22 11:49:35;;;;;;;20.83;6.65;;;13.00;52.80;;;;;;4988852;28;20506;-59
2021/01/22 11:52:00;;;;;;;19.50;6.72;;;12.80;53.10;;;;;;4984305;28;20080;-60
2021/01/22 11:54:26;;;;;;;19.08;6.95;;;12.60;53.30;;;;;;4982299;28;20083;-59
2021/01/22 11:56:52;;;;;;;20.95;6.47;;;12.50;54.20;;;;;;4989345;28;20049;-59
2021/01/22 11:59:18;;;;;;;20.58;6.40;;;12.60;54.30;;;;;;4991536;28;20408;-59
2021/01/22 12:01:44;;;;;;;20.13;7.35;;;12.60;53.90;;;;;;4987470;28;20038;-59
2021/01/22 12:04:10;;;;;;;21.02;6.43;;;12.70;53.90;;;;;;4988237;28;20038;-60
2021/01/22 12:06:36;;;;;;;17.33;5.40;;;12.60;53.60;;;;;;4988727;28;20125;-59
2021/01/22 12:09:01;;;;;;;13.40;5.32;;;12.60;53.60;;;;;;4985861;28;20097;-59
2021/01/22 12:11:28;;;;;;;18.50;6.30;;;12.60;54.00;;;;;;4985550;28;20100;-59
2021/01/22 12:13:54;;;;;;;13.30;5.45;;;12.70;54.10;;;;;;4983190;28;20128;-59
2021/01/22 12:16:20;;;;;;;15.20;5.90;;;12.80;53.60;;;;;;4984149;28;20684;-59
2021/01/22 12:18:46;;;;;;;12.27;5.85;;;12.80;53.10;;;;;;4977920;28;20505;-60
2021/01/22 12:21:11;;;;;;;17.25;5.53;;;12.70;53.40;;;;;;4974383;28;20130;-59
2021/01/22 12:23:37;;;;;;;10.52;4.47;;;12.80;53.20;;;;;;4976534;28;20132;-59
2021/01/22 12:26:03;;;;;;;19.05;5.10;;;12.70;52.80;;;;;;4974074;28;20096;-59
2021/01/22 12:28:29;;;;;;;15.70;5.05;;;12.70;53.00;;;;;;4974524;28;20050;-59
2021/01/22 12:30:55;;;;;;;15.65;5.55;;;12.60;52.90;;;;;;4981546;28;20574;-59
2021/01/22 12:33:21;;;;;;;15.05;5.05;;;12.70;53.80;;;;;;4974427;28;20664;-60
2021/01/22 12:35:49;;;;;;;16.88;4.75;;;13.30;53.90;;;;;;4975738;28;20037;-59
2021/01/22 12:38:16;;;;;;;13.43;4.82;;;13.90;53.10;;;;;;4980469;28;20504;-59
2021/01/22 12:40:42;;;;;;;14.35;4.38;;;14.70;52.30;;;;;;4984404;28;20046;-59
2021/01/22 12:43:08;;;;;;;20.27;5.20;;;15.40;50.60;;;;;;4987835;28;20116;-59
2021/01/22 12:45:34;;;;;;;11.68;4.65;;;15.60;49.00;;;;;;4987359;28;20034;-60